createdAt,value
2023-05-01T00:01:14.982Z,12.41
2023-05-01T00:03:43.126Z,12.34
2023-05-01T00:06:11.421Z,12.20
2023-05-01T00:08:39.325Z,12.09
2023-05-01T00:11:09.737Z,12.00
2023-05-01T00:13:37.830Z,11.94
2023-05-01T00:16:09.287Z,11.85
2023-05-01T00:18:38.957Z,11.77
2023-05-01T00:21:07.069Z,11.69
2023-05-01T00:23:34.973Z,11.66
2023-05-01T00:26:02.874Z,11.65
2023-05-01T00:28:30.703Z,11.65
2023-05-01T00:30:58.817Z,11.64
2023-05-01T00:33:26.660Z,11.64
2023-05-01T00:35:56.085Z,11.58
2023-05-01T00:38:24.346Z,11.49
2023-05-01T00:40:52.269Z,11.45
2023-05-01T00:43:20.202Z,11.42
2023-05-01T00:45:48.171Z,11.36
2023-05-01T00:48:16.319Z,11.25
2023-05-01T00:50:45.442Z,11.17
2023-05-01T00:53:14.697Z,11.11
2023-05-01T00:55:43.603Z,11.12
2023-05-01T00:58:12.262Z,11.18
2023-05-01T01:00:40.290Z,11.19
2023-05-01T01:03:08.593Z,11.23
2023-05-01T01:05:42.952Z,11.24
2023-05-01T01:08:31.306Z,11.25
2023-05-01T01:11:05.440Z,11.28
2023-05-01T01:13:40.790Z,11.24
2023-05-01T01:16:15.303Z,11.19
2023-05-01T01:19:00.638Z,11.14
2023-05-01T01:21:33.164Z,11.13
2023-05-01T01:24:30.297Z,11.12
2023-05-01T01:27:37.283Z,11.13
2023-05-01T01:30:36.628Z,11.18
2023-05-01T01:33:30.040Z,11.19
2023-05-01T01:36:05.762Z,11.17
2023-05-01T01:38:41.629Z,11.17
2023-05-01T01:41:14.162Z,11.17
2023-05-01T01:43:46.549Z,11.21
2023-05-01T01:46:17.720Z,11.24
2023-05-01T01:48:50.157Z,11.22
2023-05-01T01:51:21.998Z,11.24
2023-05-01T01:53:54.600Z,11.19
2023-05-01T01:56:25.417Z,11.14
2023-05-01T01:58:55.212Z,11.10
2023-05-01T02:01:25.463Z,11.07
2023-05-01T02:03:55.774Z,11.00
2023-05-01T02:06:26.883Z,11.03
2023-05-01T02:08:55.458Z,11.03
2023-05-01T02:11:26.323Z,11.08
2023-05-01T02:13:56.186Z,11.04
2023-05-01T02:16:27.662Z,11.03
2023-05-01T02:18:56.825Z,11.04
2023-05-01T02:21:28.101Z,10.90
2023-05-01T02:24:01.304Z,10.88
2023-05-01T02:26:30.633Z,10.92
2023-05-01T02:28:59.391Z,10.95
2023-05-01T02:31:27.924Z,10.79
2023-05-01T02:33:55.879Z,10.72
2023-05-01T02:36:23.743Z,10.67
2023-05-01T02:38:53.260Z,10.58
2023-05-01T02:41:23.062Z,10.51
2023-05-01T02:43:56.752Z,10.48
2023-05-01T02:46:27.897Z,10.47
2023-05-01T02:48:58.298Z,10.49
2023-05-01T02:51:27.948Z,10.47
2023-05-01T02:53:57.715Z,10.36
2023-05-01T02:56:27.932Z,10.27
2023-05-01T02:58:56.150Z,10.24
2023-05-01T03:01:24.665Z,10.24
2023-05-01T03:03:52.822Z,10.23
2023-05-01T03:06:20.834Z,10.20
2023-05-01T03:08:48.841Z,10.17
2023-05-01T03:11:18.043Z,10.11
2023-05-01T03:13:46.205Z,10.04
2023-05-01T03:16:14.265Z,10.01
2023-05-01T03:18:42.239Z,10.01
2023-05-01T03:21:10.283Z,10.03
2023-05-01T03:23:38.855Z,10.01
2023-05-01T03:26:07.695Z,10.02
2023-05-01T03:28:36.974Z,10.10
2023-05-01T03:31:05.117Z,10.15
2023-05-01T03:33:33.346Z,10.19
2023-05-01T03:36:03.111Z,10.24
2023-05-01T03:38:32.168Z,10.27
2023-05-01T03:41:11.875Z,10.29
2023-05-01T03:43:56.263Z,10.35
2023-05-01T03:46:37.898Z,10.40
2023-05-01T03:49:07.597Z,10.49
2023-05-01T03:51:42.253Z,10.53
2023-05-01T03:54:10.215Z,10.55
2023-05-01T03:56:55.350Z,10.65
2023-05-01T03:59:25.155Z,10.68
2023-05-01T04:01:53.108Z,10.69
2023-05-01T04:04:22.110Z,10.64
2023-05-01T04:06:56.918Z,10.63
2023-05-01T04:09:24.776Z,10.64
2023-05-01T04:11:52.654Z,10.58
2023-05-01T04:14:20.658Z,10.60
2023-05-01T04:16:50.902Z,10.46
2023-05-01T04:19:19.505Z,10.74
2023-05-01T04:21:48.777Z,10.87
2023-05-01T04:24:16.694Z,10.84
2023-05-01T04:26:44.641Z,10.82
2023-05-01T04:29:12.664Z,10.91
2023-05-01T04:31:41.730Z,10.88
2023-05-01T04:34:11.630Z,10.83
2023-05-01T04:36:39.632Z,10.77
2023-05-01T04:39:07.706Z,10.79
2023-05-01T04:41:35.791Z,10.72
2023-05-01T04:44:06.045Z,10.67
2023-05-01T04:46:34.466Z,10.64
2023-05-01T04:49:02.406Z,10.60
2023-05-01T04:51:32.219Z,10.62
2023-05-01T04:54:01.330Z,10.65
2023-05-01T04:56:29.889Z,10.66
2023-05-01T04:59:01.704Z,10.71
2023-05-01T05:01:31.656Z,10.77
2023-05-01T05:03:59.894Z,10.83
2023-05-01T05:06:28.565Z,10.93
2023-05-01T05:08:58.172Z,10.92
2023-05-01T05:11:26.475Z,10.93
2023-05-01T05:14:17.195Z,10.84
2023-05-01T05:16:45.183Z,10.78
2023-05-01T05:19:13.586Z,10.77
2023-05-01T05:21:43.740Z,10.82
2023-05-01T05:24:13.072Z,10.93
2023-05-01T05:26:41.045Z,10.93
2023-05-01T05:29:09.055Z,10.98
2023-05-01T05:31:37.433Z,11.06
2023-05-01T05:34:05.831Z,11.10
2023-05-01T05:36:33.903Z,11.17
2023-05-01T05:39:01.938Z,11.29
2023-05-01T05:41:31.313Z,11.44
2023-05-01T05:44:01.855Z,11.51
2023-05-01T05:46:29.994Z,11.53
2023-05-01T05:48:58.009Z,11.63
2023-05-01T05:51:28.076Z,11.75
2023-05-01T05:53:56.777Z,11.85
2023-05-01T05:56:25.374Z,11.99
2023-05-01T05:58:54.740Z,12.07
2023-05-01T06:01:22.585Z,12.04
2023-05-01T06:03:50.563Z,12.02
2023-05-01T06:06:18.773Z,12.02
2023-05-01T06:08:46.868Z,12.00
2023-05-01T06:11:14.946Z,12.03
2023-05-01T06:13:43.161Z,12.04
2023-05-01T06:16:12.555Z,12.07
2023-05-01T06:18:40.560Z,12.24
2023-05-01T06:21:08.438Z,12.41
2023-05-01T06:23:36.596Z,12.44
2023-05-01T06:26:26.115Z,12.45
2023-05-01T06:28:54.568Z,12.49
2023-05-01T06:31:24.270Z,12.55
2023-05-01T06:33:55.868Z,12.56
2023-05-01T06:36:29.876Z,12.71
2023-05-01T06:38:57.763Z,13.04
2023-05-01T06:41:27.098Z,13.28
2023-05-01T06:43:55.736Z,13.39
2023-05-01T06:46:25.121Z,13.54
2023-05-01T06:48:53.114Z,13.55
2023-05-01T06:51:21.050Z,13.64
2023-05-01T06:53:49.022Z,13.65
2023-05-01T06:56:17.237Z,13.71
2023-05-01T06:58:45.138Z,13.73
2023-05-01T07:01:13.098Z,13.65
2023-05-01T07:03:42.434Z,13.50
2023-05-01T07:06:10.519Z,13.45
2023-05-01T07:08:38.371Z,13.50
2023-05-01T07:11:07.498Z,13.57
2023-05-01T07:13:35.509Z,13.61
2023-05-01T07:16:03.492Z,13.65
2023-05-01T07:18:31.413Z,13.68
2023-05-01T07:21:00.653Z,13.71
2023-05-01T07:23:29.026Z,13.76
2023-05-01T07:25:56.979Z,13.79
2023-05-01T07:28:24.962Z,13.84
2023-05-01T07:30:52.971Z,13.91
2023-05-01T07:33:20.814Z,13.90
2023-05-01T07:35:48.831Z,13.94
2023-05-01T07:38:18.571Z,13.99
2023-05-01T07:40:46.585Z,14.07
2023-05-01T07:43:14.478Z,14.09
2023-05-01T07:45:42.765Z,14.12
2023-05-01T07:48:11.176Z,14.19
2023-05-01T07:50:40.069Z,14.23
2023-05-01T07:53:08.431Z,14.27
2023-05-01T07:55:38.555Z,14.32
2023-05-01T07:58:06.403Z,14.33
2023-05-01T08:00:34.221Z,14.38
2023-05-01T08:03:02.488Z,14.39
2023-05-01T08:05:31.629Z,14.37
2023-05-01T08:07:59.491Z,14.39
2023-05-01T08:10:28.442Z,14.39
2023-05-01T08:12:57.631Z,14.38
2023-05-01T08:15:25.468Z,14.39
2023-05-01T08:17:53.424Z,14.37
2023-05-01T08:20:21.543Z,14.42
2023-05-01T08:22:49.395Z,14.44
2023-05-01T08:25:17.442Z,14.45
2023-05-01T08:27:45.403Z,14.48
2023-05-01T08:30:14.709Z,14.48
2023-05-01T08:32:42.623Z,14.46
2023-05-01T08:35:10.761Z,14.45
2023-05-01T08:37:38.726Z,14.48
2023-05-01T08:40:08.960Z,14.51
2023-05-01T08:42:38.910Z,14.53
2023-05-01T08:45:09.368Z,14.55
2023-05-01T08:47:41.027Z,14.59
2023-05-01T08:50:12.267Z,14.64
2023-05-01T08:52:43.065Z,14.67
2023-05-01T08:55:14.158Z,14.68
2023-05-01T08:57:46.187Z,14.70
2023-05-01T09:00:18.455Z,14.76
2023-05-01T09:02:49.508Z,14.79
2023-05-01T09:05:18.834Z,14.84
2023-05-01T09:07:47.890Z,14.89
2023-05-01T09:10:17.641Z,14.94
2023-05-01T09:12:48.060Z,15.00
2023-05-01T09:15:16.499Z,15.03
2023-05-01T09:17:45.640Z,15.04
2023-05-01T09:20:15.056Z,15.09
2023-05-01T09:22:42.937Z,15.12
2023-05-01T09:25:11.682Z,15.16
2023-05-01T09:27:39.804Z,15.24
2023-05-01T09:30:09.471Z,15.27
2023-05-01T09:32:37.716Z,15.30
2023-05-01T09:35:21.955Z,15.33
2023-05-01T09:37:51.204Z,15.40
2023-05-01T09:40:19.078Z,15.45
2023-05-01T09:42:52.308Z,15.53
2023-05-01T09:45:20.863Z,15.58
2023-05-01T09:47:49.121Z,15.64
2023-05-01T09:50:31.920Z,15.70
2023-05-01T09:53:02.751Z,15.79
2023-05-01T09:55:30.612Z,15.84
2023-05-01T09:57:59.114Z,15.88
2023-05-01T10:00:27.923Z,15.91
2023-05-01T10:02:56.046Z,15.97
2023-05-01T10:05:24.714Z,16.02
2023-05-01T10:08:02.174Z,16.06
2023-05-01T10:10:30.376Z,16.09
2023-05-01T10:13:14.433Z,16.12
2023-05-01T10:15:42.449Z,16.14
2023-05-01T10:18:11.966Z,16.20
2023-05-01T10:20:40.053Z,16.21
2023-05-01T10:23:09.413Z,16.27
2023-05-01T10:25:38.576Z,16.33
2023-05-01T10:28:07.455Z,16.45
2023-05-01T10:30:37.030Z,16.53
2023-05-01T10:33:06.465Z,16.61
2023-05-01T10:35:38.207Z,16.69
2023-05-01T10:38:10.933Z,16.80
2023-05-01T10:40:45.957Z,16.86
2023-05-01T10:43:19.640Z,16.93
2023-05-01T10:45:49.506Z,16.95
2023-05-01T10:48:50.910Z,17.09
2023-05-01T10:51:20.387Z,17.14
2023-05-01T10:53:51.362Z,17.19
2023-05-01T10:56:42.876Z,17.27
2023-05-01T10:59:12.791Z,17.28
2023-05-01T11:01:43.289Z,17.19
2023-05-01T11:04:44.537Z,17.31
2023-05-01T11:07:17.852Z,17.30
2023-05-01T11:09:49.496Z,17.33
2023-05-01T11:12:55.234Z,17.39
2023-05-01T11:15:31.462Z,17.51
2023-05-01T11:18:00.369Z,17.54
2023-05-01T11:20:50.476Z,17.56
2023-05-01T11:23:19.830Z,17.59
2023-05-01T11:25:51.037Z,17.59
2023-05-01T11:28:24.080Z,17.57
2023-05-01T11:30:52.176Z,17.55
2023-05-01T11:33:25.903Z,17.53
2023-05-01T11:36:04.855Z,17.58
2023-05-01T11:38:32.912Z,17.61
2023-05-01T11:41:04.835Z,17.66
2023-05-01T11:43:32.984Z,17.76
2023-05-01T11:46:04.071Z,17.82
2023-05-01T11:48:32.500Z,17.93
2023-05-01T11:51:00.670Z,18.00
2023-05-01T11:53:28.719Z,18.06
2023-05-01T11:55:56.800Z,18.10
2023-05-01T11:58:36.526Z,18.24
2023-05-01T12:01:04.961Z,18.26
2023-05-01T12:03:42.552Z,18.31
2023-05-01T12:06:13.115Z,18.39
2023-05-01T12:08:45.953Z,18.46
2023-05-01T12:11:14.582Z,18.55
2023-05-01T12:13:44.103Z,18.62
2023-05-01T12:16:12.283Z,18.66
2023-05-01T12:18:40.376Z,18.75
2023-05-01T12:21:17.181Z,18.80
2023-05-01T12:23:45.040Z,18.91
2023-05-01T12:26:19.880Z,18.98
2023-05-01T12:29:00.052Z,19.15
2023-05-01T12:31:29.650Z,19.23
2023-05-01T12:33:58.692Z,19.30
2023-05-01T12:36:28.679Z,19.37
2023-05-01T12:38:59.222Z,19.46
2023-05-01T12:41:34.828Z,19.61
2023-05-01T12:44:04.471Z,19.67
2023-05-01T12:46:32.539Z,19.71
2023-05-01T12:49:00.450Z,19.82
2023-05-01T12:51:28.485Z,19.88
2023-05-01T12:53:58.268Z,19.96
2023-05-01T12:56:26.924Z,20.06
2023-05-01T12:58:55.410Z,20.14
2023-05-01T13:01:29.005Z,20.35
2023-05-01T13:03:58.186Z,20.45
2023-05-01T13:06:34.346Z,20.54
2023-05-01T13:09:10.470Z,20.73
2023-05-01T13:11:39.199Z,20.93
2023-05-01T13:14:08.892Z,21.04
2023-05-01T13:16:46.687Z,21.04
2023-05-01T13:19:15.212Z,21.14
2023-05-01T13:21:50.424Z,21.16
2023-05-01T13:24:18.331Z,21.22
2023-05-01T13:26:46.249Z,21.26
2023-05-01T13:29:16.030Z,21.27
2023-05-01T13:31:46.771Z,21.44
2023-05-01T13:34:21.888Z,21.60
2023-05-01T13:36:49.755Z,21.81
2023-05-01T13:39:21.374Z,21.90
2023-05-01T13:41:49.912Z,22.01
2023-05-01T13:44:18.612Z,22.14
2023-05-01T13:46:48.429Z,22.11
2023-05-01T13:49:21.728Z,22.34
2023-05-01T13:51:49.713Z,22.46
2023-05-01T13:54:18.077Z,22.58
2023-05-01T13:56:46.635Z,22.64
2023-05-01T13:59:14.813Z,22.76
2023-05-01T14:01:46.435Z,22.85
2023-05-01T14:04:21.294Z,22.98
2023-05-01T14:06:49.994Z,23.09
2023-05-01T14:09:19.382Z,23.11
2023-05-01T14:11:48.722Z,23.19
2023-05-01T14:14:17.528Z,23.41
2023-05-01T14:16:48.607Z,23.44
2023-05-01T14:19:19.015Z,23.44
2023-05-01T14:21:47.711Z,23.43
2023-05-01T14:24:17.807Z,23.58
2023-05-01T14:26:49.247Z,23.59
2023-05-01T14:29:24.030Z,23.70
2023-05-01T14:31:52.691Z,23.81
2023-05-01T14:34:22.765Z,23.90
2023-05-01T14:36:51.231Z,24.03
2023-05-01T14:39:20.028Z,24.13
2023-05-01T14:41:49.103Z,24.21
2023-05-01T14:44:19.783Z,24.21
2023-05-01T14:46:51.682Z,24.18
2023-05-01T14:49:24.372Z,24.20
2023-05-01T14:51:54.304Z,24.29
2023-05-01T14:54:22.402Z,24.23
2023-05-01T14:56:50.407Z,24.11
2023-05-01T14:59:18.355Z,23.95
2023-05-01T15:01:46.410Z,23.89
2023-05-01T15:04:14.587Z,23.92
2023-05-01T15:06:44.008Z,23.92
2023-05-01T15:09:12.746Z,23.96
2023-05-01T15:11:40.767Z,23.99
2023-05-01T15:14:08.697Z,24.06
2023-05-01T15:16:36.738Z,24.11
2023-05-01T15:19:04.721Z,24.22
2023-05-01T15:21:33.251Z,24.41
2023-05-01T15:24:02.573Z,24.42
2023-05-01T15:26:31.593Z,24.54
2023-05-01T15:28:59.469Z,24.66
2023-05-01T15:31:27.820Z,24.91
2023-05-01T15:33:55.780Z,25.11
2023-05-01T15:36:23.696Z,25.11
2023-05-01T15:38:51.749Z,24.95
2023-05-01T15:41:21.338Z,24.76
2023-05-01T15:43:49.185Z,24.67
2023-05-01T15:46:18.225Z,24.62
2023-05-01T15:48:46.318Z,24.63
2023-05-01T15:51:14.206Z,24.52
2023-05-01T15:53:42.357Z,24.42
2023-05-01T15:56:10.741Z,24.26
2023-05-01T15:58:40.088Z,24.02
2023-05-01T16:01:08.871Z,23.82
2023-05-01T16:03:49.658Z,23.70
2023-05-01T16:06:18.037Z,23.56
2023-05-01T16:08:45.919Z,23.43
2023-05-01T16:11:13.881Z,23.38
2023-05-01T16:13:43.396Z,23.31
2023-05-01T16:16:14.330Z,23.31
2023-05-01T16:18:43.019Z,23.23
2023-05-01T16:21:11.094Z,23.17
2023-05-01T16:23:39.562Z,23.00
2023-05-01T16:26:07.585Z,22.88
2023-05-01T16:28:35.775Z,22.76
2023-05-01T16:31:16.042Z,22.59
2023-05-01T16:33:53.860Z,22.44
2023-05-01T16:36:22.239Z,22.25
2023-05-01T16:38:50.113Z,22.06
2023-05-01T16:41:18.940Z,21.94
2023-05-01T16:43:47.205Z,21.83
2023-05-01T16:46:17.566Z,21.73
2023-05-01T16:48:45.476Z,21.61
2023-05-01T16:51:13.517Z,21.53
2023-05-01T16:53:41.415Z,21.42
2023-05-01T16:56:10.928Z,21.29
2023-05-01T16:58:38.863Z,21.21
2023-05-01T17:01:06.942Z,21.11
2023-05-01T17:03:37.817Z,20.98
2023-05-01T17:06:06.106Z,20.89
2023-05-01T17:08:34.112Z,20.79
2023-05-01T17:11:02.346Z,20.68
2023-05-01T17:13:30.953Z,20.53
2023-05-01T17:15:59.661Z,20.41
2023-05-01T17:18:27.708Z,20.30
2023-05-01T17:20:57.047Z,20.20
2023-05-01T17:23:27.966Z,20.12
2023-05-01T17:25:55.873Z,20.05
2023-05-01T17:28:24.383Z,19.96
2023-05-01T17:30:52.634Z,19.82
2023-05-01T17:33:20.668Z,19.76
2023-05-01T17:35:49.293Z,19.64
2023-05-01T17:38:18.585Z,19.54
2023-05-01T17:40:46.528Z,19.46
2023-05-01T17:43:14.556Z,19.35
2023-05-01T17:45:43.830Z,19.26
2023-05-01T17:48:12.032Z,19.16
2023-05-01T17:50:40.108Z,19.03
2023-05-01T17:53:09.439Z,18.98
2023-05-01T17:55:40.112Z,18.89
2023-05-01T17:58:08.077Z,18.83
2023-05-01T18:00:36.207Z,18.77
2023-05-01T18:03:04.721Z,18.68
2023-05-01T18:05:32.815Z,18.62
2023-05-01T18:08:00.684Z,18.57
2023-05-01T18:10:31.172Z,18.53
2023-05-01T18:13:00.884Z,18.46
2023-05-01T18:15:28.897Z,18.36
2023-05-01T18:17:56.852Z,18.42
2023-05-01T18:20:25.497Z,18.39
2023-05-01T18:22:54.226Z,18.37
2023-05-01T18:25:22.467Z,18.32
2023-05-01T18:27:50.843Z,18.28
2023-05-01T18:30:20.254Z,18.25
2023-05-01T18:32:49.276Z,18.22
2023-05-01T18:35:18.842Z,18.21
2023-05-01T18:37:47.125Z,18.18
2023-05-01T18:40:15.160Z,18.16
2023-05-01T18:42:43.514Z,18.15
2023-05-01T18:45:11.916Z,18.12
2023-05-01T18:47:41.255Z,18.05
2023-05-01T18:50:10.378Z,18.05
2023-05-01T18:52:38.284Z,18.01
2023-05-01T18:55:07.044Z,17.98
2023-05-01T18:57:36.076Z,17.90
2023-05-01T19:00:04.352Z,17.89
2023-05-01T19:02:32.454Z,17.83
2023-05-01T19:05:01.790Z,17.84
2023-05-01T19:07:30.343Z,17.85
2023-05-01T19:09:58.409Z,17.81
2023-05-01T19:12:26.528Z,17.80
2023-05-01T19:14:54.441Z,17.80
2023-05-01T19:17:22.482Z,17.79
2023-05-01T19:19:50.435Z,17.81
2023-05-01T19:22:19.681Z,17.83
2023-05-01T19:24:47.810Z,17.82
2023-05-01T19:27:15.732Z,17.74
2023-05-01T19:29:43.660Z,17.72
2023-05-01T19:32:12.027Z,17.69
2023-05-01T19:34:39.991Z,17.67
2023-05-01T19:37:07.897Z,17.66
2023-05-01T19:39:37.131Z,17.48
2023-05-01T19:42:05.322Z,17.64
2023-05-01T19:44:33.257Z,17.60
2023-05-01T19:47:01.867Z,17.52
2023-05-01T19:49:29.837Z,17.45
2023-05-01T19:51:58.155Z,17.46
2023-05-01T19:54:27.018Z,17.46
2023-05-01T19:56:57.011Z,17.45
2023-05-01T19:59:24.948Z,17.45
2023-05-01T20:01:52.890Z,17.38
2023-05-01T20:04:22.967Z,17.32
2023-05-01T20:06:51.360Z,17.29
2023-05-01T20:09:19.401Z,17.30
2023-05-01T20:11:47.270Z,17.30
2023-05-01T20:14:16.571Z,17.28
2023-05-01T20:16:44.560Z,17.24
2023-05-01T20:19:12.808Z,17.16
2023-05-01T20:21:40.792Z,17.09
2023-05-01T20:24:10.332Z,17.06
2023-05-01T20:26:38.227Z,16.97
2023-05-01T20:29:06.175Z,16.88
2023-05-01T20:31:35.483Z,16.83
2023-05-01T20:34:03.541Z,16.68
2023-05-01T20:36:32.108Z,16.52
2023-05-01T20:39:00.025Z,16.39
2023-05-01T20:41:29.174Z,16.29
2023-05-01T20:43:57.069Z,16.12
2023-05-01T20:46:25.122Z,16.04
2023-05-01T20:48:54.459Z,16.08
2023-05-01T20:51:22.404Z,16.20
2023-05-01T20:53:50.524Z,16.27
2023-05-01T20:56:18.474Z,16.28
2023-05-01T20:58:46.587Z,16.31
2023-05-01T21:01:14.467Z,16.32
2023-05-01T21:03:42.411Z,16.22
2023-05-01T21:06:12.089Z,16.07
2023-05-01T21:08:39.971Z,15.96
2023-05-01T21:11:07.851Z,15.86
2023-05-01T21:13:35.741Z,15.73
2023-05-01T21:16:05.563Z,15.58
2023-05-01T21:18:34.575Z,15.38
2023-05-01T21:21:03.177Z,15.20
2023-05-01T21:23:32.463Z,15.04
2023-05-01T21:26:00.384Z,14.92
2023-05-01T21:28:28.330Z,14.77
2023-05-01T21:30:56.486Z,14.71
2023-05-01T21:33:25.011Z,14.68
2023-05-01T21:35:52.936Z,14.64
2023-05-01T21:38:21.136Z,14.55
2023-05-01T21:40:50.342Z,14.46
2023-05-01T21:43:20.110Z,14.37
2023-05-01T21:45:48.029Z,14.27
2023-05-01T21:48:16.796Z,14.20
2023-05-01T21:50:44.768Z,14.18
2023-05-01T21:53:17.257Z,14.12
2023-05-01T21:55:46.905Z,14.09
2023-05-01T21:58:16.717Z,14.13
2023-05-01T22:00:47.164Z,14.16
2023-05-01T22:03:18.265Z,14.16
2023-05-01T22:05:46.304Z,14.21
2023-05-01T22:08:14.171Z,14.21
2023-05-01T22:10:42.960Z,14.13
2023-05-01T22:13:11.511Z,14.14
2023-05-01T22:15:40.831Z,14.18
2023-05-01T22:18:08.739Z,14.28
2023-05-01T22:20:36.644Z,14.36
2023-05-01T22:23:04.521Z,14.54
2023-05-01T22:25:32.386Z,14.65
2023-05-01T22:28:01.256Z,14.67
2023-05-01T22:30:29.216Z,14.75
2023-05-01T22:32:58.508Z,15.01
2023-05-01T22:35:26.373Z,15.09
2023-05-01T22:37:54.243Z,14.99
2023-05-01T22:40:22.196Z,14.72
2023-05-01T22:42:50.080Z,14.48
2023-05-01T22:45:18.090Z,14.27
2023-05-01T22:47:46.109Z,14.13
2023-05-01T22:50:15.924Z,14.12
2023-05-01T22:52:45.881Z,14.19
2023-05-01T22:55:15.996Z,14.12
2023-05-01T22:57:43.893Z,14.09
2023-05-01T23:00:13.770Z,14.03
2023-05-01T23:02:41.875Z,14.08
2023-05-01T23:05:11.576Z,14.08
2023-05-01T23:07:40.873Z,14.07
2023-05-01T23:10:09.666Z,14.10
2023-05-01T23:12:41.587Z,14.21
2023-05-01T23:15:10.556Z,14.39
2023-05-01T23:17:39.679Z,14.44
2023-05-01T23:20:09.974Z,14.28
2023-05-01T23:22:39.804Z,14.14
2023-05-01T23:25:14.236Z,13.97
2023-05-01T23:27:42.992Z,13.80
2023-05-01T23:30:12.490Z,13.68
2023-05-01T23:32:41.036Z,13.49
2023-05-01T23:35:14.369Z,13.49
2023-05-01T23:37:42.454Z,13.45
2023-05-01T23:40:12.347Z,13.48
2023-05-01T23:42:40.680Z,13.50
2023-05-01T23:45:09.495Z,13.60
2023-05-01T23:47:38.761Z,13.60
2023-05-01T23:50:07.589Z,13.48
2023-05-01T23:52:35.500Z,13.48
2023-05-01T23:55:03.445Z,13.53
2023-05-01T23:57:32.703Z,13.56
